createdAt,value
2023-08-17T00:01:30.156Z,98.89
2023-08-17T00:03:56.953Z,99.15
2023-08-17T00:06:23.640Z,99.00
2023-08-17T00:08:51.716Z,99.33
2023-08-17T00:11:18.394Z,99.41
2023-08-17T00:13:45.246Z,99.51
2023-08-17T00:16:12.020Z,99.41
2023-08-17T00:18:38.706Z,99.31
2023-08-17T00:21:05.831Z,99.25
2023-08-17T00:23:32.577Z,99.26
2023-08-17T00:26:00.909Z,99.12
2023-08-17T00:28:27.617Z,99.23
2023-08-17T00:30:54.346Z,99.55
2023-08-17T00:33:21.108Z,99.63
2023-08-17T00:35:47.879Z,99.39
2023-08-17T00:38:14.789Z,99.43
2023-08-17T00:40:41.541Z,99.40
2023-08-17T00:43:09.679Z,99.44
2023-08-17T00:45:36.714Z,99.33
2023-08-17T00:48:03.904Z,99.38
2023-08-17T00:50:30.621Z,99.31
2023-08-17T00:52:57.554Z,99.44
2023-08-17T00:55:24.279Z,99.57
2023-08-17T00:57:51.059Z,99.56
2023-08-17T01:00:20.080Z,99.62
2023-08-17T01:02:47.102Z,99.65
2023-08-17T01:05:13.859Z,99.64
2023-08-17T01:07:40.610Z,99.66
2023-08-17T01:10:07.721Z,99.78
2023-08-17T01:12:37.385Z,99.68
2023-08-17T01:15:06.819Z,99.67
2023-08-17T01:17:38.058Z,99.43
2023-08-17T01:20:06.050Z,99.78
2023-08-17T01:22:32.827Z,99.70
2023-08-17T01:25:00.912Z,99.66
2023-08-17T01:27:33.917Z,99.78
2023-08-17T01:30:00.589Z,99.69
2023-08-17T01:32:29.956Z,99.69
2023-08-17T01:34:58.897Z,99.83
2023-08-17T01:37:26.732Z,99.72
2023-08-17T01:39:53.956Z,99.84
2023-08-17T01:42:22.633Z,99.94
2023-08-17T01:44:49.327Z,99.98
2023-08-17T01:47:16.325Z,99.75
2023-08-17T01:49:43.053Z,99.99
2023-08-17T01:52:09.750Z,99.72
2023-08-17T01:54:36.823Z,99.61
2023-08-17T01:57:03.985Z,99.62
2023-08-17T01:59:32.060Z,99.99
2023-08-17T02:01:58.798Z,99.53
2023-08-17T02:04:25.638Z,99.75
2023-08-17T02:06:52.428Z,99.28
2023-08-17T02:09:19.096Z,99.09
2023-08-17T02:11:45.814Z,99.72
2023-08-17T02:14:12.516Z,99.48
2023-08-17T02:16:40.679Z,99.37
2023-08-17T02:19:07.511Z,99.16
2023-08-17T02:21:34.363Z,99.46
2023-08-17T02:24:01.048Z,99.17
2023-08-17T02:26:27.828Z,99.28
2023-08-17T02:28:54.471Z,99.25
2023-08-17T02:31:21.187Z,99.47
2023-08-17T02:33:50.376Z,99.48
2023-08-17T02:36:17.474Z,99.36
2023-08-17T02:38:44.210Z,99.15
2023-08-17T02:41:11.074Z,99.17
2023-08-17T02:43:37.818Z,99.14
2023-08-17T02:46:04.566Z,99.06
2023-08-17T02:48:32.965Z,98.91
2023-08-17T02:51:01.448Z,99.79
2023-08-17T02:53:28.111Z,99.56
2023-08-17T02:55:54.831Z,99.99
2023-08-17T02:58:21.517Z,99.88
2023-08-17T03:00:48.201Z,99.70
2023-08-17T03:03:15.112Z,99.96
2023-08-17T03:05:41.838Z,99.94
2023-08-17T03:08:09.940Z,99.97
2023-08-17T03:10:37.873Z,99.96
2023-08-17T03:13:04.789Z,99.39
2023-08-17T03:15:31.562Z,99.72
2023-08-17T03:17:58.397Z,99.33
2023-08-17T03:20:25.088Z,99.60
2023-08-17T03:22:51.804Z,99.55
2023-08-17T03:25:20.053Z,99.74
2023-08-17T03:27:47.301Z,99.69
2023-08-17T03:30:14.020Z,99.37
2023-08-17T03:32:40.868Z,99.50
2023-08-17T03:35:08.580Z,99.61
2023-08-17T03:37:35.284Z,99.82
2023-08-17T03:40:01.947Z,99.88
2023-08-17T03:42:30.032Z,99.95
2023-08-17T03:44:57.107Z,99.99
2023-08-17T03:47:24.049Z,99.99
2023-08-17T03:49:50.882Z,99.99
2023-08-17T03:52:18.154Z,99.99
2023-08-17T03:54:44.899Z,99.99
2023-08-17T03:57:11.527Z,99.99
2023-08-17T03:59:39.801Z,99.99
2023-08-17T04:02:06.568Z,99.95
2023-08-17T04:04:33.377Z,99.88
2023-08-17T04:07:00.168Z,99.93
2023-08-17T04:09:27.050Z,99.99
2023-08-17T04:11:53.787Z,99.99
2023-08-17T04:14:20.516Z,99.99
2023-08-17T04:16:48.650Z,99.92
2023-08-17T04:19:15.450Z,99.77
2023-08-17T04:21:42.193Z,99.94
2023-08-17T04:24:09.016Z,99.57
2023-08-17T04:26:35.755Z,99.34
2023-08-17T04:29:02.442Z,99.19
2023-08-17T04:31:29.270Z,99.03
2023-08-17T04:33:57.632Z,98.51
2023-08-17T04:36:24.289Z,98.16
2023-08-17T04:38:50.957Z,98.84
2023-08-17T04:41:17.998Z,97.97
2023-08-17T04:43:44.682Z,98.19
2023-08-17T04:46:11.436Z,97.89
2023-08-17T04:48:38.751Z,98.19
2023-08-17T04:51:06.779Z,98.69
2023-08-17T04:53:33.632Z,99.02
2023-08-17T04:56:00.364Z,99.17
2023-08-17T04:58:27.084Z,99.05
2023-08-17T05:00:53.877Z,98.89
2023-08-17T05:03:32.913Z,98.33
2023-08-17T05:06:00.636Z,97.73
2023-08-17T05:08:28.818Z,97.12
2023-08-17T05:10:55.606Z,97.49
2023-08-17T05:13:22.390Z,96.83
2023-08-17T05:15:49.320Z,95.73
2023-08-17T05:18:16.015Z,95.28
2023-08-17T05:20:42.703Z,95.48
2023-08-17T05:23:09.391Z,94.26
2023-08-17T05:25:37.470Z,94.62
2023-08-17T05:28:05.381Z,93.58
2023-08-17T05:30:32.065Z,92.50
2023-08-17T05:32:58.916Z,93.32
2023-08-17T05:35:25.806Z,93.81
2023-08-17T05:37:52.466Z,94.03
2023-08-17T05:40:19.364Z,93.82
2023-08-17T05:42:47.511Z,93.83
2023-08-17T05:45:14.265Z,94.05
2023-08-17T05:47:40.953Z,93.53
2023-08-17T05:50:08.764Z,93.81
2023-08-17T05:52:35.476Z,93.55
2023-08-17T05:55:02.239Z,93.40
2023-08-17T05:57:29.225Z,91.17
2023-08-17T05:59:57.409Z,88.86
2023-08-17T06:02:24.159Z,88.02
2023-08-17T06:04:50.868Z,88.28
2023-08-17T06:07:17.528Z,86.65
2023-08-17T06:09:44.285Z,85.00
2023-08-17T06:12:10.969Z,85.01
2023-08-17T06:14:37.695Z,84.24
2023-08-17T06:17:05.949Z,84.83
2023-08-17T06:19:32.824Z,84.77
2023-08-17T06:22:00.633Z,86.13
2023-08-17T06:24:27.368Z,82.48
2023-08-17T06:26:54.121Z,85.92
2023-08-17T06:29:20.827Z,80.84
2023-08-17T06:31:47.501Z,83.81
2023-08-17T06:34:15.774Z,83.16
2023-08-17T06:36:42.472Z,82.73
2023-08-17T06:39:09.535Z,84.05
2023-08-17T06:41:36.249Z,83.03
2023-08-17T06:44:03.020Z,81.61
2023-08-17T06:46:29.906Z,80.71
2023-08-17T06:48:56.620Z,82.39
2023-08-17T06:51:24.716Z,83.39
2023-08-17T06:53:51.434Z,82.81
2023-08-17T06:56:18.154Z,82.12
2023-08-17T06:58:44.856Z,82.09
2023-08-17T07:01:12.038Z,81.87
2023-08-17T07:03:39.596Z,83.04
2023-08-17T07:06:06.345Z,82.17
2023-08-17T07:08:34.426Z,83.00
2023-08-17T07:11:01.189Z,81.89
2023-08-17T07:13:27.927Z,82.11
2023-08-17T07:15:54.792Z,81.34
2023-08-17T07:18:24.552Z,79.08
2023-08-17T07:20:51.296Z,79.51
2023-08-17T07:23:18.163Z,79.44
2023-08-17T07:25:46.472Z,78.64
2023-08-17T07:28:13.228Z,79.91
2023-08-17T07:30:40.011Z,78.05
2023-08-17T07:33:06.758Z,78.16
2023-08-17T07:35:33.569Z,76.96
2023-08-17T07:38:09.067Z,78.04
2023-08-17T07:40:36.841Z,76.91
2023-08-17T07:43:05.094Z,76.21
2023-08-17T07:45:31.876Z,76.98
2023-08-17T07:47:58.616Z,77.09
2023-08-17T07:50:25.384Z,74.13
2023-08-17T07:52:52.109Z,75.36
2023-08-17T07:55:19.919Z,73.81
2023-08-17T07:57:46.633Z,71.63
2023-08-17T08:00:16.089Z,73.55
2023-08-17T08:02:42.860Z,72.89
2023-08-17T08:05:10.162Z,73.19
2023-08-17T08:07:36.951Z,72.48
2023-08-17T08:10:03.906Z,71.04
2023-08-17T08:12:30.660Z,70.97
2023-08-17T08:14:57.398Z,74.17
2023-08-17T08:17:25.758Z,72.15
2023-08-17T08:19:52.748Z,70.67
2023-08-17T08:22:19.699Z,67.17
2023-08-17T08:24:46.448Z,64.03
2023-08-17T08:27:13.160Z,65.31
2023-08-17T08:29:40.601Z,66.62
2023-08-17T08:32:07.319Z,65.96
2023-08-17T08:34:35.419Z,67.90
2023-08-17T08:37:02.090Z,65.86
2023-08-17T08:39:28.870Z,65.20
2023-08-17T08:41:55.705Z,67.63
2023-08-17T08:44:22.451Z,70.01
2023-08-17T08:46:50.010Z,67.36
2023-08-17T08:49:19.806Z,64.56
2023-08-17T08:51:50.773Z,63.05
2023-08-17T08:54:21.213Z,67.26
2023-08-17T08:56:48.415Z,68.17
2023-08-17T08:59:15.435Z,66.81
2023-08-17T09:01:42.267Z,68.48
2023-08-17T09:04:09.055Z,66.37
2023-08-17T09:06:35.780Z,66.97
2023-08-17T09:09:04.048Z,68.79
2023-08-17T09:11:30.855Z,67.71
2023-08-17T09:13:57.567Z,67.29
2023-08-17T09:16:25.837Z,66.29
2023-08-17T09:18:53.683Z,68.31
2023-08-17T09:21:23.584Z,67.30
2023-08-17T09:23:58.919Z,69.50
2023-08-17T09:26:31.696Z,66.72
2023-08-17T09:28:58.529Z,61.52
2023-08-17T09:31:25.686Z,65.90
2023-08-17T09:33:52.603Z,64.40
2023-08-17T09:36:21.674Z,62.32
2023-08-17T09:38:48.955Z,63.93
2023-08-17T09:41:15.751Z,62.62
2023-08-17T09:43:43.946Z,62.25
2023-08-17T09:46:11.072Z,58.88
2023-08-17T09:48:37.948Z,52.04
2023-08-17T09:51:04.725Z,56.71
2023-08-17T09:53:35.840Z,59.26
2023-08-17T09:56:02.629Z,58.99
2023-08-17T09:58:32.031Z,55.89
2023-08-17T10:01:01.241Z,53.63
2023-08-17T10:03:28.029Z,57.18
2023-08-17T10:05:56.969Z,58.94
2023-08-17T10:08:23.703Z,61.10
2023-08-17T10:10:56.424Z,59.40
2023-08-17T10:13:27.501Z,56.65
2023-08-17T10:15:58.410Z,52.99
2023-08-17T10:18:30.360Z,55.31
2023-08-17T10:21:02.746Z,58.78
2023-08-17T10:23:29.476Z,60.43
2023-08-17T10:29:28.104Z,58.82
2023-08-17T10:31:54.897Z,59.86
2023-08-17T10:34:23.329Z,57.24
2023-08-17T10:36:50.038Z,60.26
2023-08-17T10:39:21.303Z,57.66
2023-08-17T10:41:48.052Z,61.80
2023-08-17T10:44:14.800Z,61.90
2023-08-17T10:46:41.789Z,63.73
2023-08-17T10:49:24.612Z,62.08
2023-08-17T10:52:03.394Z,61.40
2023-08-17T10:54:37.645Z,59.18
2023-08-17T10:57:19.094Z,57.58
2023-08-17T10:59:45.866Z,56.82
2023-08-17T11:02:12.592Z,62.53
2023-08-17T11:04:39.371Z,59.55
2023-08-17T11:07:07.509Z,58.92
2023-08-17T11:09:36.434Z,59.37
2023-08-17T11:12:03.182Z,61.41
2023-08-17T11:14:34.317Z,62.64
2023-08-17T11:17:06.285Z,62.31
2023-08-17T11:19:33.501Z,65.04
2023-08-17T11:22:00.173Z,63.69
2023-08-17T11:24:29.482Z,58.07
2023-08-17T11:26:56.866Z,60.84
2023-08-17T11:29:23.518Z,62.76
2023-08-17T11:31:52.209Z,62.22
2023-08-17T11:34:18.892Z,59.87
2023-08-17T11:36:45.578Z,62.15
2023-08-17T11:39:12.562Z,61.62
2023-08-17T11:41:40.632Z,60.87
2023-08-17T11:44:07.342Z,62.27
2023-08-17T11:46:34.060Z,63.38
2023-08-17T11:49:00.796Z,62.59
2023-08-17T11:51:30.490Z,62.43
2023-08-17T11:54:00.528Z,59.80
2023-08-17T11:56:27.268Z,61.70
2023-08-17T11:58:55.321Z,60.17
2023-08-17T12:01:22.342Z,57.55
2023-08-17T12:03:49.565Z,57.07
2023-08-17T12:06:16.970Z,56.85
2023-08-17T12:08:46.712Z,58.21
2023-08-17T12:11:13.998Z,57.99
2023-08-17T12:13:40.801Z,56.93
2023-08-17T12:16:15.764Z,58.06
2023-08-17T12:18:45.228Z,54.00
2023-08-17T12:21:12.424Z,56.56
2023-08-17T12:23:39.247Z,55.68
2023-08-17T12:26:06.011Z,54.99
2023-08-17T12:28:33.539Z,51.66
2023-08-17T12:31:00.595Z,55.22
2023-08-17T12:33:28.889Z,54.33
2023-08-17T12:35:55.701Z,55.40
2023-08-17T12:38:24.356Z,56.01
2023-08-17T12:40:51.075Z,60.27
2023-08-17T12:43:17.804Z,62.59
2023-08-17T12:45:44.611Z,60.53
2023-08-17T12:48:11.728Z,58.38
2023-08-17T12:53:09.523Z,60.05
2023-08-17T12:55:36.228Z,58.13
2023-08-17T12:58:03.226Z,59.10
2023-08-17T13:00:30.112Z,60.00
2023-08-17T13:02:56.924Z,62.29
2023-08-17T13:05:23.605Z,61.47
2023-08-17T13:07:51.803Z,61.89
2023-08-17T13:10:18.577Z,62.22
2023-08-17T13:12:45.289Z,62.73
2023-08-17T13:15:12.742Z,62.44
2023-08-17T13:17:39.594Z,64.25
2023-08-17T13:20:07.534Z,62.16
2023-08-17T13:22:34.299Z,62.61
2023-08-17T13:25:02.921Z,63.49
2023-08-17T13:27:29.650Z,65.07
2023-08-17T13:29:56.370Z,63.99
2023-08-17T13:32:23.360Z,65.71
2023-08-17T13:34:50.146Z,65.06
2023-08-17T13:37:16.898Z,64.92
2023-08-17T13:39:43.936Z,66.35
2023-08-17T13:42:12.268Z,65.15
2023-08-17T13:44:39.255Z,64.32
2023-08-17T13:47:05.940Z,63.72
2023-08-17T13:49:33.047Z,62.62
2023-08-17T13:51:59.749Z,63.45
2023-08-17T13:54:26.524Z,64.29
2023-08-17T13:56:54.009Z,64.84
2023-08-17T13:59:22.343Z,65.26
2023-08-17T14:01:49.067Z,65.48
2023-08-17T14:04:15.789Z,63.76
2023-08-17T14:06:43.542Z,63.93
2023-08-17T14:09:10.284Z,64.48
2023-08-17T14:11:36.983Z,64.75
2023-08-17T14:14:03.815Z,66.98
2023-08-17T14:16:33.226Z,66.58
2023-08-17T14:19:00.092Z,68.19
2023-08-17T14:21:26.866Z,70.34
2023-08-17T14:23:53.826Z,71.22
2023-08-17T14:26:20.591Z,69.68
2023-08-17T14:28:47.368Z,69.88
2023-08-17T14:31:14.102Z,70.40
2023-08-17T14:33:42.231Z,70.29
2023-08-17T14:36:08.981Z,69.79
2023-08-17T14:38:35.743Z,70.06
2023-08-17T14:41:03.707Z,71.01
2023-08-17T14:43:30.636Z,72.14
2023-08-17T14:45:57.330Z,74.28
2023-08-17T14:48:24.183Z,76.45
2023-08-17T14:50:52.356Z,78.70
2023-08-17T14:53:19.065Z,79.22
2023-08-17T14:55:50.181Z,78.97
2023-08-17T14:58:17.112Z,77.77
2023-08-17T15:00:44.148Z,76.42
2023-08-17T15:03:10.966Z,75.76
2023-08-17T15:05:37.745Z,76.14
2023-08-17T15:08:06.382Z,74.79
2023-08-17T15:10:33.892Z,76.43
2023-08-17T15:13:00.813Z,74.08
2023-08-17T15:15:27.715Z,73.75
2023-08-17T15:17:54.471Z,71.42
2023-08-17T15:20:21.265Z,70.53
2023-08-17T15:22:48.018Z,70.14
2023-08-17T15:25:16.345Z,69.75
2023-08-17T15:27:43.864Z,68.92
2023-08-17T15:30:11.108Z,66.83
2023-08-17T15:32:37.934Z,64.05
2023-08-17T15:35:05.436Z,58.70
2023-08-17T15:37:32.133Z,59.27
2023-08-17T15:39:58.995Z,62.51
2023-08-17T15:42:27.437Z,63.13
2023-08-17T15:44:54.840Z,62.50
2023-08-17T15:47:21.520Z,60.41
2023-08-17T15:49:48.272Z,63.61
2023-08-17T15:52:15.241Z,60.60
2023-08-17T15:54:42.001Z,59.33
2023-08-17T15:57:09.710Z,59.28
2023-08-17T15:59:37.754Z,60.04
2023-08-17T16:02:04.700Z,62.05
2023-08-17T16:04:31.493Z,67.85
2023-08-17T16:06:58.218Z,72.96
2023-08-17T16:09:30.557Z,77.05
2023-08-17T16:11:57.931Z,77.38
2023-08-17T16:14:24.808Z,76.91
2023-08-17T16:16:56.644Z,72.84
2023-08-17T16:19:24.681Z,72.83
2023-08-17T16:21:51.431Z,75.61
2023-08-17T16:24:18.150Z,75.52
2023-08-17T16:26:44.835Z,72.45
2023-08-17T16:29:11.578Z,74.06
2023-08-17T16:31:38.311Z,75.19
2023-08-17T16:34:06.620Z,72.59
2023-08-17T16:36:36.791Z,72.27
2023-08-17T16:39:04.904Z,71.19
2023-08-17T16:41:31.633Z,71.69
2023-08-17T16:43:58.333Z,75.00
2023-08-17T16:46:25.130Z,75.16
2023-08-17T16:48:51.828Z,75.79
2023-08-17T16:51:19.938Z,77.47
2023-08-17T16:53:46.696Z,80.27
2023-08-17T16:56:13.437Z,80.52
2023-08-17T16:58:40.280Z,79.06
2023-08-17T17:01:14.410Z,80.87
2023-08-17T17:03:42.288Z,82.25
2023-08-17T17:06:09.229Z,83.88
2023-08-17T17:08:37.375Z,81.73
2023-08-17T17:11:04.961Z,82.18
2023-08-17T17:13:31.850Z,82.56
2023-08-17T17:15:58.586Z,82.82
2023-08-17T17:18:25.709Z,81.84
2023-08-17T17:20:52.446Z,82.89
2023-08-17T17:23:19.159Z,82.79
2023-08-17T17:25:47.349Z,82.44
2023-08-17T17:28:14.066Z,83.76
2023-08-17T17:30:41.030Z,84.53
2023-08-17T17:33:07.844Z,84.78
2023-08-17T17:35:35.230Z,85.29
2023-08-17T17:38:02.282Z,85.77
2023-08-17T17:40:29.312Z,85.33
2023-08-17T17:42:58.702Z,85.53
2023-08-17T17:45:26.044Z,85.95
2023-08-17T17:47:52.824Z,86.27
2023-08-17T17:50:19.536Z,85.35
2023-08-17T17:52:48.581Z,85.08
2023-08-17T17:55:15.915Z,84.40
2023-08-17T17:57:42.726Z,84.82
2023-08-17T18:00:12.285Z,84.54
2023-08-17T18:02:39.133Z,87.04
2023-08-17T18:05:10.283Z,85.91
2023-08-17T18:07:36.997Z,86.40
2023-08-17T18:10:04.395Z,85.78
2023-08-17T18:12:31.148Z,86.33
2023-08-17T18:14:57.900Z,86.99
2023-08-17T18:17:26.222Z,86.60
2023-08-17T18:19:53.181Z,86.22
2023-08-17T18:22:20.925Z,87.02
2023-08-17T18:24:47.712Z,86.80
2023-08-17T18:27:14.422Z,87.02
2023-08-17T18:29:41.230Z,87.78
2023-08-17T18:32:08.069Z,87.78
2023-08-17T18:34:36.208Z,88.25
2023-08-17T18:37:02.895Z,88.53
2023-08-17T18:39:29.645Z,88.52
2023-08-17T18:41:56.323Z,89.14
2023-08-17T18:44:23.143Z,89.77
2023-08-17T18:46:49.864Z,90.26
2023-08-17T18:49:16.599Z,90.13
2023-08-17T18:51:44.661Z,90.13
2023-08-17T18:54:11.433Z,90.68
2023-08-17T18:56:38.165Z,91.20
2023-08-17T18:59:05.308Z,91.23
2023-08-17T19:01:32.150Z,91.22
2023-08-17T19:03:59.121Z,91.37
2023-08-17T19:06:26.277Z,91.73
2023-08-17T19:08:54.399Z,91.66
2023-08-17T19:11:21.266Z,91.96
2023-08-17T19:13:48.068Z,92.62
2023-08-17T19:16:14.887Z,92.68
2023-08-17T19:18:41.736Z,92.55
2023-08-17T19:21:08.471Z,93.08
2023-08-17T19:23:35.605Z,93.29
2023-08-17T19:26:03.810Z,93.26
2023-08-17T19:28:30.529Z,93.51
2023-08-17T19:30:57.477Z,93.49
2023-08-17T19:33:24.326Z,93.69
2023-08-17T19:35:51.481Z,93.36
2023-08-17T19:38:18.788Z,93.62
2023-08-17T19:40:46.046Z,93.42
2023-08-17T19:43:14.146Z,93.75
2023-08-17T19:45:41.096Z,93.99
2023-08-17T19:48:08.189Z,94.21
2023-08-17T19:50:34.925Z,93.91
2023-08-17T19:53:01.750Z,93.89
2023-08-17T19:55:28.461Z,94.27
2023-08-17T19:57:55.147Z,94.25
2023-08-17T20:00:23.474Z,95.03
2023-08-17T20:02:50.209Z,94.57
2023-08-17T20:05:17.959Z,95.28
2023-08-17T20:07:44.705Z,95.41
2023-08-17T20:10:12.178Z,95.59
2023-08-17T20:12:38.906Z,96.09
2023-08-17T20:15:08.004Z,96.23
2023-08-17T20:17:36.866Z,96.24
2023-08-17T20:20:04.382Z,96.44
2023-08-17T20:22:31.107Z,96.77
2023-08-17T20:24:58.795Z,96.99
2023-08-17T20:27:25.642Z,97.22
2023-08-17T20:29:52.557Z,97.56
2023-08-17T20:32:19.268Z,97.31
2023-08-17T20:34:47.525Z,97.22
2023-08-17T20:37:14.302Z,97.03
2023-08-17T20:39:41.012Z,97.30
2023-08-17T20:42:08.566Z,96.85
2023-08-17T20:44:35.381Z,96.88
2023-08-17T20:47:02.102Z,96.98
2023-08-17T20:49:28.805Z,96.83
2023-08-17T20:51:57.412Z,96.58
2023-08-17T20:54:24.101Z,96.56
2023-08-17T20:56:50.799Z,96.29
2023-08-17T20:59:17.854Z,96.71
2023-08-17T21:01:45.284Z,96.61
2023-08-17T21:04:14.892Z,96.64
2023-08-17T21:06:41.563Z,96.22
2023-08-17T21:09:09.721Z,96.43
2023-08-17T21:11:37.840Z,97.06
2023-08-17T21:14:04.895Z,96.50
2023-08-17T21:16:31.573Z,96.86
2023-08-17T21:18:59.240Z,97.33
2023-08-17T21:21:27.504Z,97.18
2023-08-17T21:23:54.280Z,97.16
2023-08-17T21:26:22.395Z,97.58
2023-08-17T21:28:49.156Z,97.42
2023-08-17T21:31:16.520Z,97.54
2023-08-17T21:33:43.401Z,97.01
2023-08-17T21:36:10.169Z,96.84
2023-08-17T21:38:37.536Z,96.25
2023-08-17T21:41:04.282Z,96.26
2023-08-17T21:43:32.425Z,97.15
2023-08-17T21:45:59.846Z,97.44
2023-08-17T21:48:26.647Z,97.86
2023-08-17T21:50:53.563Z,98.09
2023-08-17T21:53:20.465Z,98.07
2023-08-17T21:55:48.124Z,98.13
2023-08-17T21:58:14.923Z,97.77
2023-08-17T22:00:43.012Z,97.35
2023-08-17T22:03:09.875Z,97.42
2023-08-17T22:05:36.765Z,97.85
2023-08-17T22:08:03.809Z,97.91
2023-08-17T22:10:30.586Z,97.88
2023-08-17T22:12:57.637Z,97.71
2023-08-17T22:15:24.449Z,98.17
2023-08-17T22:17:52.581Z,98.55
2023-08-17T22:20:19.443Z,98.18
2023-08-17T22:22:46.135Z,98.11
2023-08-17T22:25:13.102Z,98.23
2023-08-17T22:27:39.827Z,98.13
2023-08-17T22:30:07.782Z,97.79
2023-08-17T22:32:34.549Z,97.83
2023-08-17T22:35:02.794Z,97.86
2023-08-17T22:37:29.640Z,98.22
2023-08-17T22:39:56.611Z,98.25
2023-08-17T22:42:23.491Z,98.49
2023-08-17T22:44:50.265Z,98.32
2023-08-17T22:47:16.944Z,98.55
2023-08-17T22:49:43.743Z,98.51
2023-08-17T22:52:11.915Z,98.14
2023-08-17T22:54:38.728Z,98.10
2023-08-17T22:57:05.720Z,98.43
2023-08-17T22:59:32.423Z,98.42
2023-08-17T23:01:59.147Z,98.55
2023-08-17T23:04:28.739Z,98.54
2023-08-17T23:06:55.913Z,97.96
2023-08-17T23:09:23.972Z,98.00
2023-08-17T23:11:50.687Z,98.16
2023-08-17T23:14:17.339Z,98.08
2023-08-17T23:16:44.103Z,97.97
2023-08-17T23:19:10.854Z,98.21
2023-08-17T23:21:37.595Z,98.35
2023-08-17T23:24:05.031Z,98.49
2023-08-17T23:26:33.169Z,98.59
2023-08-17T23:28:59.937Z,98.35
2023-08-17T23:31:26.758Z,98.33
2023-08-17T23:33:53.527Z,98.62
2023-08-17T23:36:20.229Z,98.55
2023-08-17T23:38:46.992Z,98.40
2023-08-17T23:41:13.817Z,98.43
2023-08-17T23:43:41.904Z,98.38
2023-08-17T23:46:09.022Z,98.56
2023-08-17T23:48:35.770Z,99.06
2023-08-17T23:51:02.487Z,98.99
2023-08-17T23:53:29.361Z,99.19
2023-08-17T23:55:56.053Z,99.20
2023-08-17T23:58:22.797Z,99.17
